createdAt,value
2018-06-24T00:00:21.324Z,22.3
2018-06-24T00:01:11.747Z,22.3
2018-06-24T00:02:01.442Z,22.3
2018-06-24T00:02:51.541Z,22.3
2018-06-24T00:03:42.117Z,22.3
2018-06-24T00:04:32.178Z,22.3
2018-06-24T00:05:21.705Z,22.3
2018-06-24T00:06:12.077Z,22.3
2018-06-24T00:07:02.427Z,22.3
2018-06-24T00:07:51.670Z,22.3
2018-06-24T00:08:42.251Z,22.3
2018-06-24T00:09:31.773Z,22.3
2018-06-24T00:10:22.346Z,22.3
2018-06-24T00:11:12.668Z,22.3
2018-06-24T00:12:01.908Z,22.3
2018-06-24T00:12:52.510Z,22.3
2018-06-24T00:13:42.936Z,22.3
2018-06-24T00:14:32.146Z,22.3
2018-06-24T00:15:22.791Z,22.3
2018-06-24T00:16:12.517Z,22.3
2018-06-24T00:17:02.336Z,22.3
2018-06-24T00:17:52.640Z,22.3
2018-06-24T00:18:41.876Z,22.3
2018-06-24T00:19:32.210Z,22.3
2018-06-24T00:20:23.109Z,22.3
2018-06-24T00:21:12.603Z,22.3
2018-06-24T00:22:02.936Z,22.3
2018-06-24T00:22:52.171Z,22.3
2018-06-24T00:23:42.868Z,22.2
2018-06-24T00:24:33.123Z,22.3
2018-06-24T00:25:23.302Z,22.3
2018-06-24T00:26:13.022Z,22.3
2018-06-24T00:27:03.606Z,22.3
2018-06-24T00:27:53.653Z,22.3
2018-06-24T00:28:43.185Z,22.3
2018-06-24T00:29:33.600Z,22.2
2018-06-24T00:30:23.585Z,22.3
2018-06-24T00:31:13.508Z,22.3
2018-06-24T00:32:03.007Z,22.3
2018-06-24T00:32:52.746Z,22.3
2018-06-24T00:33:43.640Z,22.3
2018-06-24T00:34:33.680Z,22.3
2018-06-24T00:35:23.737Z,22.2
2018-06-24T00:36:14.375Z,22.3
2018-06-24T00:37:04.438Z,22.3
2018-06-24T00:37:54.443Z,22.3
2018-06-24T00:38:44.468Z,22.2
2018-06-24T00:39:34.516Z,22.3
2018-06-24T00:40:24.663Z,22.3
2018-06-24T00:41:14.667Z,22.3
2018-06-24T00:42:04.716Z,22.3
2018-06-24T00:42:54.842Z,22.3
2018-06-24T00:43:44.317Z,22.3
2018-06-24T00:44:34.385Z,22.3
2018-06-24T00:45:24.945Z,22.3
2018-06-24T00:46:14.828Z,22.3
2018-06-24T00:47:05.377Z,22.3
2018-06-24T00:47:55.458Z,22.3
2018-06-24T00:48:45.479Z,22.3
2018-06-24T00:49:35.350Z,22.3
2018-06-24T00:50:25.083Z,22.3
2018-06-24T00:51:15.115Z,22.3
2018-06-24T00:52:05.212Z,22.3
2018-06-24T00:52:55.803Z,22.3
2018-06-24T00:53:45.676Z,22.3
2018-06-24T00:54:35.132Z,22.3
2018-06-24T00:55:25.693Z,22.3
2018-06-24T00:56:15.854Z,22.3
2018-06-24T00:57:05.836Z,22.3
2018-06-24T00:57:55.956Z,22.2
2018-06-24T00:58:45.703Z,22.3
2018-06-24T00:59:35.724Z,22.3
2018-06-24T01:00:26.159Z,22.3
2018-06-24T01:01:16.456Z,22.3
2018-06-24T01:02:06.258Z,22.3
2018-06-24T01:02:55.522Z,22.3
2018-06-24T01:03:46.147Z,22.3
2018-06-24T01:04:35.892Z,22.3
2018-06-24T01:05:25.755Z,22.3
2018-06-24T01:06:15.506Z,22.2
2018-06-24T01:07:05.801Z,22.3
2018-06-24T01:07:56.732Z,22.2
2018-06-24T01:08:46.710Z,22.3
2018-06-24T01:09:36.518Z,22.3
2018-06-24T01:10:26.057Z,22.3
2018-06-24T01:11:16.432Z,22.3
2018-06-24T01:12:05.881Z,22.3
2018-06-24T01:12:57.088Z,22.2
2018-06-24T01:13:46.584Z,22.3
2018-06-24T01:14:37.145Z,22.2
2018-06-24T01:15:27.249Z,22.3
2018-06-24T01:16:16.732Z,22.3
2018-06-24T01:17:06.827Z,22.3
2018-06-24T01:17:57.443Z,22.3
2018-06-24T01:18:47.542Z,22.3
2018-06-24T01:19:37.601Z,22.3
2018-06-24T01:20:27.109Z,22.3
2018-06-24T01:21:17.656Z,22.3
2018-06-24T01:22:07.785Z,22.3
2018-06-24T01:22:57.781Z,22.3
2018-06-24T01:23:48.101Z,22.2
2018-06-24T01:24:37.899Z,22.3
2018-06-24T01:25:27.965Z,22.3
2018-06-24T01:26:17.741Z,22.3
2018-06-24T01:27:07.783Z,22.3
2018-06-24T01:27:57.945Z,22.3
2018-06-24T01:28:47.397Z,22.3
2018-06-24T01:29:38.295Z,22.2
2018-06-24T01:30:27.501Z,22.3
2018-06-24T01:31:17.337Z,22.3
2018-06-24T01:32:07.927Z,22.3
2018-06-24T01:32:58.323Z,22.2
2018-06-24T01:33:47.774Z,22.2
2018-06-24T01:34:38.956Z,22.3
2018-06-24T01:35:27.633Z,22.3
2018-06-24T01:36:18.241Z,22.3
2018-06-24T01:37:08.124Z,22.3
2018-06-24T01:37:58.109Z,22.3
2018-06-24T01:38:49.238Z,22.3
2018-06-24T01:39:38.764Z,22.3
2018-06-24T01:40:29.426Z,22.3
2018-06-24T01:41:19.484Z,22.3
2018-06-24T01:42:09.200Z,22.3
2018-06-24T01:42:59.530Z,22.3
2018-06-24T01:43:49.664Z,22.3
2018-06-24T01:44:39.419Z,22.3
2018-06-24T01:45:29.180Z,22.3
2018-06-24T01:46:19.810Z,22.3
2018-06-24T01:47:09.337Z,22.3
2018-06-24T01:47:59.917Z,22.3
2018-06-24T01:48:49.989Z,22.3
2018-06-24T01:49:39.550Z,22.2
2018-06-24T01:50:29.271Z,22.3
2018-06-24T01:51:20.072Z,22.2
2018-06-24T01:52:09.703Z,22.3
2018-06-24T01:52:59.172Z,22.3
2018-06-24T01:53:49.047Z,22.3
2018-06-24T01:54:39.650Z,22.2
2018-06-24T01:55:29.701Z,22.3
2018-06-24T01:56:20.626Z,22.3
2018-06-24T01:57:09.531Z,22.3
2018-06-24T01:58:00.138Z,22.3
2018-06-24T01:58:50.194Z,22.3
2018-06-24T01:59:40.020Z,22.3
2018-06-24T02:00:30.103Z,22.3
2018-06-24T02:01:19.798Z,22.2
2018-06-24T02:02:10.459Z,22.3
2018-06-24T02:03:01.149Z,22.3
2018-06-24T02:03:50.274Z,22.2
2018-06-24T02:04:40.383Z,22.3
2018-06-24T02:05:30.131Z,22.3
2018-06-24T02:06:21.081Z,22.3
2018-06-24T02:07:11.118Z,22.2
2018-06-24T02:08:00.312Z,22.3
2018-06-24T02:08:51.496Z,22.3
2018-06-24T02:09:40.971Z,22.3
2018-06-24T02:10:30.794Z,22.3
2018-06-24T02:11:20.837Z,22.3
2018-06-24T02:12:10.988Z,22.3
2018-06-24T02:13:01.034Z,22.2
2018-06-24T02:13:51.911Z,22.3
2018-06-24T02:14:41.978Z,22.2
2018-06-24T02:15:31.432Z,22.3
2018-06-24T02:16:22.079Z,22.2
2018-06-24T02:17:11.833Z,22.2
2018-06-24T02:18:01.576Z,22.3
2018-06-24T02:18:51.895Z,22.3
2018-06-24T02:19:42.016Z,22.2
2018-06-24T02:20:32.337Z,22.3
2018-06-24T02:21:21.602Z,22.2
2018-06-24T02:22:12.509Z,22.2
2018-06-24T02:23:01.780Z,22.2
2018-06-24T02:23:52.613Z,22.2
2018-06-24T02:24:41.867Z,22.3
2018-06-24T02:25:31.999Z,22.2
2018-06-24T02:26:22.276Z,22.2
2018-06-24T02:27:12.313Z,22.2
2018-06-24T02:28:02.399Z,22.3
2018-06-24T02:28:52.431Z,22.2
2018-06-24T02:29:42.240Z,22.2
2018-06-24T02:30:32.627Z,22.2
2018-06-24T02:31:22.918Z,22.2
2018-06-24T02:32:12.468Z,22.2
2018-06-24T02:33:02.754Z,22.2
2018-06-24T02:33:53.113Z,22.2
2018-06-24T02:34:42.329Z,22.2
2018-06-24T02:35:33.264Z,22.2
2018-06-24T02:36:23.036Z,22.2
2018-06-24T02:37:13.347Z,22.2
2018-06-24T02:38:02.572Z,22.3
2018-06-24T02:38:52.927Z,22.2
2018-06-24T02:39:43.220Z,22.2
2018-06-24T02:40:33.263Z,22.2
2018-06-24T02:41:22.807Z,22.2
2018-06-24T02:42:13.975Z,22.2
2018-06-24T02:43:04.064Z,22.2
2018-06-24T02:43:53.831Z,22.2
2018-06-24T02:44:43.581Z,22.3
2018-06-24T02:45:33.995Z,22.2
2018-06-24T02:46:24.322Z,22.2
2018-06-24T02:47:13.792Z,22.2
2018-06-24T02:48:03.631Z,22.2
2018-06-24T02:48:54.197Z,22.2
2018-06-24T02:49:44.572Z,22.2
2018-06-24T02:50:34.697Z,22.2
2018-06-24T02:51:23.333Z,22.2
2018-06-24T02:52:14.485Z,22.2
2018-06-24T02:53:03.459Z,22.2
2018-06-24T02:53:54.981Z,22.2
2018-06-24T02:54:44.137Z,22.2
2018-06-24T02:55:34.538Z,22.2
2018-06-24T02:56:24.790Z,22.2
2018-06-24T02:57:15.096Z,22.2
2018-06-24T02:58:04.624Z,22.2
2018-06-24T02:58:55.244Z,22.2
2018-06-24T02:59:44.803Z,22.2
2018-06-24T03:00:35.069Z,22.2
2018-06-24T03:01:24.594Z,22.2
2018-06-24T03:02:15.520Z,22.2
2018-06-24T03:03:04.773Z,22.2
2018-06-24T03:03:54.486Z,22.2
2018-06-24T03:04:44.560Z,22.2
2018-06-24T03:05:35.216Z,22.2
2018-06-24T03:06:24.768Z,22.2
2018-06-24T03:07:15.053Z,22.2
2018-06-24T03:08:05.734Z,22.2
2018-06-24T03:08:54.607Z,22.2
2018-06-24T03:09:45.534Z,22.2
2018-06-24T03:10:35.998Z,22.2
2018-06-24T03:11:25.385Z,22.2
2018-06-24T03:12:15.697Z,22.2
2018-06-24T03:13:05.493Z,22.2
2018-06-24T03:13:55.550Z,22.2
2018-06-24T03:14:45.671Z,22.2
2018-06-24T03:15:36.273Z,22.2
2018-06-24T03:16:25.473Z,22.2
2018-06-24T03:17:15.808Z,22.2
2018-06-24T03:18:06.129Z,22.2
2018-06-24T03:18:56.683Z,22.2
2018-06-24T03:19:46.848Z,22.2
2018-06-24T03:20:36.603Z,22.2
2018-06-24T03:21:26.130Z,22.2
2018-06-24T03:22:16.700Z,22.2
2018-06-24T03:23:05.993Z,22.2
2018-06-24T03:23:55.408Z,22.2
2018-06-24T03:24:46.384Z,22.2
2018-06-24T03:25:36.829Z,22.2
2018-06-24T03:26:26.151Z,22.2
2018-06-24T03:27:17.038Z,22.2
2018-06-24T03:28:07.125Z,22.2
2018-06-24T03:28:57.418Z,22.2
2018-06-24T03:29:46.120Z,22.2
2018-06-24T03:30:37.217Z,22.2
2018-06-24T03:31:27.122Z,22.2
2018-06-24T03:32:16.924Z,22.2
2018-06-24T03:33:07.821Z,22.1
2018-06-24T03:33:57.519Z,22.1
2018-06-24T03:34:47.581Z,22.1
2018-06-24T03:35:38.023Z,22.2
2018-06-24T03:36:27.848Z,22.1
2018-06-24T03:37:17.837Z,22.1
2018-06-24T03:38:08.141Z,22.1
2018-06-24T03:38:57.971Z,22.1
2018-06-24T03:39:48.260Z,22.1
2018-06-24T03:40:38.303Z,22.1
2018-06-24T03:41:28.109Z,22.1
2018-06-24T03:42:17.602Z,22.1
2018-06-24T03:43:08.529Z,22.1
2018-06-24T03:43:58.367Z,22.1
2018-06-24T03:44:47.790Z,22
2018-06-24T03:45:38.697Z,22
2018-06-24T03:46:27.921Z,22
2018-06-24T03:47:17.875Z,22
2018-06-24T03:48:08.411Z,22
2018-06-24T03:48:58.731Z,22
2018-06-24T03:49:48.262Z,22
2018-06-24T03:50:39.120Z,21.9
2018-06-24T03:51:28.601Z,21.9
2018-06-24T03:52:18.685Z,21.9
2018-06-24T03:53:08.775Z,21.9
2018-06-24T03:53:59.096Z,21.9
2018-06-24T03:54:47.992Z,21.9
2018-06-24T03:55:38.914Z,21.9
2018-06-24T03:56:28.753Z,21.9
2018-06-24T03:57:19.283Z,21.9
2018-06-24T03:58:10.466Z,21.9
2018-06-24T03:58:58.635Z,21.9
2018-06-24T03:59:49.750Z,21.9
2018-06-24T04:00:38.986Z,21.9
2018-06-24T04:01:29.375Z,21.9
2018-06-24T04:02:18.874Z,21.9
2018-06-24T04:03:09.457Z,21.9
2018-06-24T04:04:00.094Z,21.9
2018-06-24T04:04:51.019Z,21.8
2018-06-24T04:05:38.534Z,21.9
2018-06-24T04:06:28.935Z,21.9
2018-06-24T04:07:20.387Z,21.8
2018-06-24T04:08:10.483Z,21.8
2018-06-24T04:08:59.941Z,21.9
2018-06-24T04:09:50.545Z,21.8
2018-06-24T04:10:40.623Z,21.8
2018-06-24T04:11:30.413Z,21.8
2018-06-24T04:12:19.867Z,21.8
2018-06-24T04:13:09.078Z,21.8
2018-06-24T04:14:00.570Z,21.8
2018-06-24T04:14:50.085Z,21.8
2018-06-24T04:15:40.429Z,21.8
2018-06-24T04:16:30.499Z,21.8
2018-06-24T04:17:20.214Z,21.8
2018-06-24T04:18:10.361Z,21.8
2018-06-24T04:19:00.338Z,21.8
2018-06-24T04:19:50.731Z,21.8
2018-06-24T04:20:40.791Z,21.8
2018-06-24T04:21:31.399Z,21.8
2018-06-24T04:22:21.278Z,21.8
2018-06-24T04:23:10.697Z,21.8
2018-06-24T04:24:00.971Z,21.8
2018-06-24T04:24:50.801Z,21.8
2018-06-24T04:25:42.251Z,21.8
2018-06-24T04:26:30.165Z,21.8
2018-06-24T04:27:21.345Z,21.8
2018-06-24T04:28:11.158Z,21.8
2018-06-24T04:29:01.455Z,21.8
2018-06-24T04:29:51.517Z,21.8
2018-06-24T04:30:41.590Z,21.8
2018-06-24T04:31:31.378Z,21.8
2018-06-24T04:32:21.754Z,21.8
2018-06-24T04:33:11.244Z,21.8
2018-06-24T04:34:01.280Z,21.8
2018-06-24T04:34:51.575Z,21.8
2018-06-24T04:35:42.508Z,21.8
2018-06-24T04:36:31.671Z,21.8
2018-06-24T04:37:21.492Z,21.8
2018-06-24T04:38:12.099Z,21.8
2018-06-24T04:39:02.787Z,21.8
2018-06-24T04:39:52.812Z,21.8
2018-06-24T04:40:41.990Z,21.8
2018-06-24T04:41:32.327Z,21.8
2018-06-24T04:42:22.135Z,21.8
2018-06-24T04:43:11.950Z,21.8
2018-06-24T04:44:02.504Z,21.8
2018-06-24T04:44:53.161Z,21.8
2018-06-24T04:45:42.905Z,21.8
2018-06-24T04:46:32.990Z,21.8
2018-06-24T04:47:23.317Z,21.8
2018-06-24T04:48:13.171Z,21.8
2018-06-24T04:49:03.261Z,21.8
2018-06-24T04:49:53.525Z,21.8
2018-06-24T04:50:43.564Z,21.8
2018-06-24T04:51:33.273Z,21.8
2018-06-24T04:52:22.903Z,21.8
2018-06-24T04:53:13.284Z,21.8
2018-06-24T04:54:03.030Z,21.8
2018-06-24T04:54:52.577Z,21.8
2018-06-24T04:55:43.672Z,21.8
2018-06-24T04:56:33.546Z,21.8
2018-06-24T04:57:23.519Z,21.8
2018-06-24T04:58:13.008Z,21.8
2018-06-24T04:59:04.176Z,21.8
2018-06-24T04:59:53.415Z,21.8
2018-06-24T05:00:44.057Z,21.8
2018-06-24T05:01:33.312Z,21.8
2018-06-24T05:02:23.374Z,21.8
2018-06-24T05:03:13.091Z,21.8
2018-06-24T05:04:04.037Z,21.8
2018-06-24T05:04:54.361Z,21.8
2018-06-24T05:05:44.542Z,21.8
2018-06-24T05:06:35.414Z,21.8
2018-06-24T05:07:24.808Z,21.8
2018-06-24T05:08:14.590Z,21.8
2018-06-24T05:09:04.134Z,21.8
2018-06-24T05:09:53.612Z,21.8
2018-06-24T05:10:45.081Z,21.8
2018-06-24T05:11:34.888Z,21.8
2018-06-24T05:12:25.169Z,21.8
2018-06-24T05:13:14.991Z,21.8
2018-06-24T05:14:04.287Z,21.8
2018-06-24T05:14:55.503Z,21.8
2018-06-24T05:15:45.486Z,21.8
2018-06-24T05:16:34.946Z,21.8
2018-06-24T05:17:24.754Z,21.8
2018-06-24T05:18:14.533Z,21.8
2018-06-24T05:19:04.314Z,21.8
2018-06-24T05:19:55.158Z,21.8
2018-06-24T05:20:45.831Z,21.8
2018-06-24T05:21:35.919Z,21.8
2018-06-24T05:22:25.114Z,21.8
2018-06-24T05:23:15.532Z,21.8
2018-06-24T05:24:05.816Z,21.8
2018-06-24T05:24:55.550Z,21.8
2018-06-24T05:25:46.193Z,21.8
2018-06-24T05:26:36.018Z,21.8
2018-06-24T05:27:25.744Z,21.8
2018-06-24T05:28:15.904Z,21.8
2018-06-24T05:29:05.391Z,21.8
2018-06-24T05:29:55.777Z,21.8
2018-06-24T05:30:45.831Z,21.8
2018-06-24T05:31:35.056Z,21.8
2018-06-24T05:32:25.906Z,21.8
2018-06-24T05:33:16.285Z,21.8
2018-06-24T05:34:06.092Z,21.8
2018-06-24T05:34:55.289Z,21.8
2018-06-24T05:35:46.927Z,21.8
2018-06-24T05:36:36.984Z,21.8
2018-06-24T05:37:26.251Z,21.8
2018-06-24T05:38:16.853Z,21.8
2018-06-24T05:39:06.893Z,21.8
2018-06-24T05:39:56.821Z,21.8
2018-06-24T05:40:47.051Z,21.8
2018-06-24T05:41:36.509Z,21.8
2018-06-24T05:42:27.462Z,21.8
2018-06-24T05:43:17.827Z,21.9
2018-06-24T05:44:06.734Z,21.8
2018-06-24T05:44:57.098Z,21.8
2018-06-24T05:45:47.802Z,21.8
2018-06-24T05:46:36.969Z,21.9
2018-06-24T05:47:27.550Z,21.9
2018-06-24T05:48:17.618Z,21.9
2018-06-24T05:49:07.682Z,21.9
2018-06-24T05:49:57.220Z,21.9
2018-06-24T05:50:48.132Z,21.9
2018-06-24T05:51:37.864Z,21.9
2018-06-24T05:52:27.196Z,21.9
2018-06-24T05:53:17.163Z,21.9
2018-06-24T05:54:08.058Z,21.9
2018-06-24T05:54:58.121Z,21.9
2018-06-24T05:55:47.872Z,21.9
2018-06-24T05:56:38.230Z,21.9
2018-06-24T05:57:27.774Z,21.9
2018-06-24T05:58:18.108Z,21.9
2018-06-24T05:59:08.130Z,21.9
2018-06-24T05:59:58.240Z,21.9
2018-06-24T06:00:48.545Z,21.9
2018-06-24T06:01:38.842Z,21.9
2018-06-24T06:02:28.683Z,21.9
2018-06-24T06:03:18.505Z,21.9
2018-06-24T06:04:08.580Z,21.9
2018-06-24T06:04:59.181Z,21.9
2018-06-24T06:05:48.477Z,21.9
2018-06-24T06:06:39.020Z,21.9
2018-06-24T06:07:29.079Z,21.9
2018-06-24T06:08:19.146Z,21.9
2018-06-24T06:09:09.485Z,21.9
2018-06-24T06:09:59.049Z,21.9
2018-06-24T06:10:49.480Z,21.9
2018-06-24T06:11:39.124Z,21.9
2018-06-24T06:12:29.436Z,21.9
2018-06-24T06:13:19.586Z,21.9
2018-06-24T06:14:09.604Z,21.9
2018-06-24T06:14:59.713Z,21.9
2018-06-24T06:15:49.692Z,21.9
2018-06-24T06:16:39.496Z,21.9
2018-06-24T06:17:30.030Z,21.9
2018-06-24T06:18:20.171Z,21.9
2018-06-24T06:19:09.868Z,21.9
2018-06-24T06:20:00.289Z,21.9
2018-06-24T06:20:50.063Z,21.9
2018-06-24T06:21:39.985Z,21.9
2018-06-24T06:22:30.434Z,21.9
2018-06-24T06:23:19.920Z,21.9
2018-06-24T06:24:10.422Z,21.9
2018-06-24T06:25:00.089Z,22
2018-06-24T06:25:50.696Z,21.9
2018-06-24T06:26:40.755Z,21.9
2018-06-24T06:27:30.540Z,22
2018-06-24T06:28:20.579Z,22
2018-06-24T06:29:10.401Z,21.9
2018-06-24T06:30:00.573Z,22
2018-06-24T06:30:50.788Z,21.9
2018-06-24T06:31:41.130Z,22
2018-06-24T06:32:30.648Z,21.9
2018-06-24T06:33:20.486Z,22
2018-06-24T06:34:10.488Z,22
2018-06-24T06:35:00.831Z,22
2018-06-24T06:35:50.879Z,22
2018-06-24T06:36:41.075Z,22
2018-06-24T06:37:31.045Z,22
2018-06-24T06:38:21.663Z,22
2018-06-24T06:39:10.379Z,22
2018-06-24T06:40:01.788Z,22
2018-06-24T06:40:51.624Z,22
2018-06-24T06:41:40.762Z,22
2018-06-24T06:42:31.402Z,22
2018-06-24T06:43:21.705Z,22
2018-06-24T06:44:11.533Z,22
2018-06-24T06:45:03.892Z,22
2018-06-24T06:45:53.941Z,22
2018-06-24T06:46:41.161Z,22
2018-06-24T06:47:32.111Z,22.1
2018-06-24T06:48:21.843Z,22
2018-06-24T06:49:12.468Z,22
2018-06-24T06:50:00.835Z,22.1
2018-06-24T06:50:52.613Z,22
2018-06-24T06:51:42.093Z,22.1
2018-06-24T06:52:31.909Z,22
2018-06-24T06:53:21.271Z,22.1
2018-06-24T06:54:12.013Z,22.1
2018-06-24T06:55:02.699Z,22.1
2018-06-24T06:55:51.890Z,22.1
2018-06-24T06:56:41.622Z,22.1
2018-06-24T06:57:31.860Z,22.1
2018-06-24T06:58:22.596Z,22.1
2018-06-24T06:59:12.110Z,22.1
2018-06-24T07:00:03.188Z,22.1
2018-06-24T07:00:52.784Z,22.1
2018-06-24T07:01:42.657Z,22.1
2018-06-24T07:02:33.183Z,22.1
2018-06-24T07:03:23.978Z,22.1
2018-06-24T07:04:13.647Z,22.1
2018-06-24T07:05:02.547Z,22
2018-06-24T07:05:54.373Z,22
2018-06-24T07:06:43.532Z,21.9
2018-06-24T07:07:33.884Z,21.9
2018-06-24T07:08:23.663Z,21.9
2018-06-24T07:09:13.424Z,21.9
2018-06-24T07:10:03.465Z,21.9
2018-06-24T07:10:53.294Z,21.8
2018-06-24T07:11:43.471Z,21.8
2018-06-24T07:12:33.179Z,21.8
2018-06-24T07:13:23.749Z,21.8
2018-06-24T07:14:13.309Z,21.8
2018-06-24T07:15:03.871Z,21.8
2018-06-24T07:15:53.995Z,21.7
2018-06-24T07:16:43.754Z,21.8
2018-06-24T07:17:34.081Z,21.7
2018-06-24T07:18:23.439Z,21.7
2018-06-24T07:19:14.061Z,21.7
2018-06-24T07:20:03.986Z,21.7
2018-06-24T07:20:54.136Z,21.6
2018-06-24T07:21:44.729Z,21.6
2018-06-24T07:22:33.973Z,21.6
2018-06-24T07:23:22.843Z,21.6
2018-06-24T07:24:13.809Z,21.6
2018-06-24T07:25:04.091Z,21.6
2018-06-24T07:25:54.968Z,21.6
2018-06-24T07:26:44.199Z,21.6
2018-06-24T07:27:34.857Z,21.6
2018-06-24T07:28:25.416Z,21.6
2018-06-24T07:29:14.652Z,21.6
2018-06-24T07:30:05.371Z,21.6
2018-06-24T07:30:55.627Z,21.6
2018-06-24T07:31:44.834Z,21.6
2018-06-24T07:32:35.200Z,21.6
2018-06-24T07:33:26.325Z,21.6
2018-06-24T07:34:15.315Z,21.6
2018-06-24T07:35:05.408Z,21.7
2018-06-24T07:35:56.025Z,21.7
2018-06-24T07:36:45.492Z,21.7
2018-06-24T07:37:35.881Z,21.7
2018-06-24T07:38:25.614Z,21.7
2018-06-24T07:39:17.065Z,21.7
2018-06-24T07:40:05.799Z,21.7
2018-06-24T07:40:55.379Z,21.7
2018-06-24T07:41:45.439Z,21.7
2018-06-24T07:42:35.417Z,21.7
2018-06-24T07:43:25.298Z,21.7
2018-06-24T07:44:16.324Z,21.7
2018-06-24T07:45:05.908Z,21.6
2018-06-24T07:45:55.959Z,21.7
2018-06-24T07:46:45.547Z,21.6
2018-06-24T07:47:36.148Z,21.6
2018-06-24T07:48:25.716Z,21.6
2018-06-24T07:49:16.438Z,21.6
2018-06-24T07:50:06.301Z,21.6
2018-06-24T07:50:56.565Z,21.6
2018-06-24T07:51:46.371Z,21.6
2018-06-24T07:52:37.255Z,21.6
2018-06-24T07:53:26.743Z,21.6
2018-06-24T07:54:17.371Z,21.6
2018-06-24T07:55:06.898Z,21.6
2018-06-24T07:55:57.197Z,21.6
2018-06-24T07:56:47.015Z,21.5
2018-06-24T07:57:37.739Z,21.6
2018-06-24T07:58:27.400Z,21.6
2018-06-24T07:59:17.776Z,21.5
2018-06-24T08:00:07.275Z,21.6
2018-06-24T08:00:57.606Z,21.6
2018-06-24T08:01:47.397Z,21.6
2018-06-24T08:02:37.176Z,21.6
2018-06-24T08:03:29.167Z,21.6
2018-06-24T08:04:17.671Z,21.6
2018-06-24T08:05:07.853Z,21.5
2018-06-24T08:05:58.260Z,21.5
2018-06-24T08:06:47.755Z,21.5
2018-06-24T08:07:38.111Z,21.5
2018-06-24T08:08:28.445Z,21.5
2018-06-24T08:09:16.860Z,21.5
2018-06-24T08:10:08.050Z,21.4
2018-06-24T08:10:58.359Z,21.4
2018-06-24T08:11:48.486Z,21.4
2018-06-24T08:12:38.772Z,21.4
2018-06-24T08:13:28.430Z,21.4
2018-06-24T08:14:18.335Z,21.4
2018-06-24T08:15:08.977Z,21.4
2018-06-24T08:15:57.891Z,21.4
2018-06-24T08:16:48.560Z,21.4
2018-06-24T08:17:38.624Z,21.4
2018-06-24T08:18:29.181Z,21.4
2018-06-24T08:19:18.717Z,21.4
2018-06-24T08:20:08.831Z,21.4
2018-06-24T08:20:59.111Z,21.4
2018-06-24T08:21:49.452Z,21.4
2018-06-24T08:22:39.025Z,21.4
2018-06-24T08:23:28.761Z,21.4
2018-06-24T08:24:19.409Z,21.4
2018-06-24T08:25:08.627Z,21.4
2018-06-24T08:25:59.228Z,21.4
2018-06-24T08:26:49.558Z,21.4
2018-06-24T08:27:38.885Z,21.4
2018-06-24T08:28:29.675Z,21.4
2018-06-24T08:29:18.449Z,21.4
2018-06-24T08:30:09.869Z,21.4
2018-06-24T08:31:00.188Z,21.4
2018-06-24T08:31:50.515Z,21.4
2018-06-24T08:32:39.745Z,21.4
2018-06-24T08:33:29.790Z,21.4
2018-06-24T08:34:20.113Z,21.4
2018-06-24T08:35:09.436Z,21.4
2018-06-24T08:35:59.178Z,21.4
2018-06-24T08:36:50.614Z,21.4
2018-06-24T08:37:39.644Z,21.4
2018-06-24T08:38:30.184Z,21.4
2018-06-24T08:39:20.588Z,21.4
2018-06-24T08:40:10.592Z,21.4
2018-06-24T08:40:59.080Z,21.4
2018-06-24T08:41:50.988Z,21.4
2018-06-24T08:42:41.063Z,21.4
2018-06-24T08:43:30.618Z,21.4
2018-06-24T08:44:21.140Z,21.4
2018-06-24T08:45:11.260Z,21.4
2018-06-24T08:45:59.757Z,21.4
2018-06-24T08:46:50.402Z,21.4
2018-06-24T08:47:40.991Z,21.4
2018-06-24T08:48:29.658Z,21.4
2018-06-24T08:49:20.852Z,21.4
2018-06-24T08:50:10.688Z,21.4
2018-06-24T08:51:01.172Z,21.4
2018-06-24T08:51:49.745Z,21.4
2018-06-24T08:52:40.782Z,21.3
2018-06-24T08:53:30.270Z,21.3
2018-06-24T08:54:21.825Z,21.3
2018-06-24T08:55:11.355Z,21.4
2018-06-24T08:56:00.503Z,21.3
2018-06-24T08:56:51.669Z,21.3
2018-06-24T08:57:40.385Z,21.4
2018-06-24T08:58:30.669Z,21.4
2018-06-24T08:59:21.606Z,21.4
2018-06-24T09:00:11.162Z,21.4
2018-06-24T09:01:02.000Z,21.3
2018-06-24T09:01:51.535Z,21.4
2018-06-24T09:02:41.550Z,21.3
2018-06-24T09:03:30.969Z,21.4
2018-06-24T09:04:21.668Z,21.3
2018-06-24T09:05:12.293Z,21.4
2018-06-24T09:06:02.123Z,21.4
2018-06-24T09:06:50.791Z,21.4
2018-06-24T09:07:41.766Z,21.4
2018-06-24T09:08:32.577Z,21.4
2018-06-24T09:09:22.342Z,21.4
2018-06-24T09:10:12.655Z,21.4
2018-06-24T09:11:02.472Z,21.4
2018-06-24T09:11:52.220Z,21.4
2018-06-24T09:12:42.605Z,21.4
2018-06-24T09:13:32.117Z,21.4
2018-06-24T09:14:22.337Z,21.4
